Time;durP1;ratioP1;P1;durP2;ratioP2;P2;SDS_P1;SDS_P2;PMS_P1;PMS_P2;Temp;Humidity;BMP_temperature;BMP_pressure;BME280_temperature;BME280_humidity;BME280_pressure;Samples;Min_cycle;Max_cycle;Signal;HPM_P1;HPM_P2
2023/10/29 00:01:58;;;;;;;0.00;0.00;;;15.30;81.10;;;;;;5043655;28;20447;-81
2023/10/29 00:04:23;;;;;;;0.00;0.00;;;15.20;81.40;;;;;;5043455;28;20025;-82
2023/10/29 00:06:49;;;;;;;0.00;0.00;;;15.20;81.40;;;;;;5032929;28;20414;-78
2023/10/29 00:09:15;;;;;;;0.00;0.00;;;15.20;81.30;;;;;;5046371;28;20512;-83
2023/10/29 00:11:40;;;;;;;0.00;0.00;;;15.20;81.40;;;;;;5042929;28;20646;-80
2023/10/29 00:14:06;;;;;;;0.00;0.00;;;15.30;81.30;;;;;;5039338;28;20040;-79
2023/10/29 00:16:32;;;;;;;0.00;0.00;;;15.20;81.40;;;;;;5046565;28;20392;-78
2023/10/29 00:18:57;;;;;;;0.00;0.00;;;15.30;80.80;;;;;;5041826;28;20562;-79
2023/10/29 00:21:23;;;;;;;0.00;0.00;;;15.30;80.60;;;;;;5043835;28;20033;-80
2023/10/29 00:23:49;;;;;;;0.00;0.00;;;15.30;80.40;;;;;;5042792;28;20051;-78
2023/10/29 00:26:15;;;;;;;0.00;0.00;;;15.30;80.20;;;;;;5051716;28;20108;-80
2023/10/29 00:28:41;;;;;;;0.00;0.00;;;15.30;80.20;;;;;;5043208;28;20040;-77
2023/10/29 00:31:06;;;;;;;0.00;0.00;;;15.30;80.40;;;;;;5040263;28;20025;-78
2023/10/29 00:33:32;;;;;;;0.03;0.03;;;15.30;79.70;;;;;;5043377;28;20278;-78
2023/10/29 00:35:58;;;;;;;0.00;0.00;;;15.30;80.00;;;;;;5039544;28;20108;-78
2023/10/29 00:38:24;;;;;;;0.00;0.00;;;15.30;79.50;;;;;;5042815;28;20043;-79
2023/10/29 00:40:50;;;;;;;0.00;0.00;;;15.20;80.20;;;;;;5044071;28;20574;-79
2023/10/29 00:43:16;;;;;;;0.67;0.67;;;15.20;80.10;;;;;;5040799;28;20038;-78
2023/10/29 00:45:42;;;;;;;0.00;0.00;;;15.30;79.80;;;;;;5038147;28;20547;-78
2023/10/29 00:48:10;;;;;;;0.00;0.00;;;15.40;78.90;;;;;;5043171;28;20025;-79
2023/10/29 00:50:36;;;;;;;0.10;0.10;;;15.40;79.10;;;;;;5043349;28;20115;-81
2023/10/29 00:53:02;;;;;;;0.00;0.00;;;15.40;78.90;;;;;;5042883;28;20033;-78
2023/10/29 00:55:28;;;;;;;0.00;0.00;;;15.30;78.80;;;;;;5042798;28;20036;-80
2023/10/29 00:57:54;;;;;;;0.00;0.00;;;15.40;79.40;;;;;;5043011;28;20062;-79
2023/10/29 01:00:21;;;;;;;0.00;0.00;;;15.30;80.00;;;;;;5043412;28;20060;-79
2023/10/29 01:02:46;;;;;;;0.00;0.00;;;15.30;80.00;;;;;;5054443;28;20036;-79
2023/10/29 01:05:12;;;;;;;4.47;1.87;;;15.20;80.90;;;;;;5035116;28;20029;-78
2023/10/29 01:07:38;;;;;;;0.03;0.03;;;15.10;81.60;;;;;;5043173;28;20036;-78
2023/10/29 01:10:04;;;;;;;0.00;0.00;;;15.10;82.80;;;;;;5042331;28;20408;-78
2023/10/29 01:12:30;;;;;;;0.00;0.00;;;15.10;83.10;;;;;;5043789;28;20025;-80
2023/10/29 01:14:56;;;;;;;0.00;0.00;;;15.00;82.20;;;;;;5042587;28;20041;-81
2023/10/29 01:17:23;;;;;;;0.00;0.00;;;15.00;82.90;;;;;;5042854;28;20790;-79
2023/10/29 01:19:49;;;;;;;0.00;0.00;;;15.10;81.50;;;;;;5038874;28;20444;-78
2023/10/29 01:22:16;;;;;;;0.00;0.00;;;15.10;81.30;;;;;;5034751;28;20052;-78
2023/10/29 01:24:42;;;;;;;;;;;15.10;81.10;;;;;;5034792;28;20071;-79
2023/10/29 01:27:09;;;;;;;0.00;0.00;;;15.10;81.60;;;;;;5040839;28;20372;-79
2023/10/29 01:29:35;;;;;;;0.10;0.10;;;14.80;92.80;;;;;;5044540;28;20009;-79
2023/10/29 01:32:00;;;;;;;0.00;0.00;;;14.80;92.10;;;;;;5041404;28;20039;-78
2023/10/29 01:34:26;;;;;;;0.00;0.00;;;14.80;92.80;;;;;;5039692;28;20103;-79
2023/10/29 01:36:52;;;;;;;0.00;0.00;;;14.80;93.60;;;;;;5051891;28;20029;-78
2023/10/29 01:39:18;;;;;;;0.17;0.17;;;14.70;93.30;;;;;;5027734;28;20097;-79
2023/10/29 01:41:43;;;;;;;0.10;0.10;;;14.70;92.00;;;;;;5038730;28;20096;-78
2023/10/29 01:44:09;;;;;;;0.07;0.07;;;14.70;92.30;;;;;;5031953;28;20037;-78
2023/10/29 01:46:34;;;;;;;0.10;0.10;;;14.70;90.90;;;;;;5043333;28;20029;-78
2023/10/29 01:49:04;;;;;;;0.00;0.00;;;14.70;90.30;;;;;;5035138;28;20066;-79
2023/10/29 01:51:29;;;;;;;0.00;0.00;;;14.70;90.30;;;;;;5036509;28;20036;-77
2023/10/29 01:53:55;;;;;;;0.00;0.00;;;14.70;89.00;;;;;;5035942;28;20029;-79
2023/10/29 01:56:20;;;;;;;0.40;0.40;;;14.70;88.80;;;;;;5036037;28;20131;-77
2023/10/29 01:58:46;;;;;;;0.10;0.10;;;14.70;88.30;;;;;;5028371;28;20536;-79
2023/10/29 02:01:12;;;;;;;0.00;0.00;;;14.70;86.80;;;;;;5033653;28;20052;-80
2023/10/29 02:03:38;;;;;;;0.33;0.33;;;14.70;87.30;;;;;;5036741;28;20175;-80
2023/10/29 02:06:04;;;;;;;0.00;0.00;;;14.70;87.50;;;;;;5038164;28;20028;-77
2023/10/29 02:08:31;;;;;;;0.03;0.03;;;14.70;87.20;;;;;;5041611;28;20029;-78
2023/10/29 02:10:57;;;;;;;;;;;14.70;86.40;;;;;;5041649;28;20052;-78
2023/10/29 02:13:22;;;;;;;0.00;0.00;;;14.70;85.60;;;;;;5042230;28;19909;-79
2023/10/29 02:15:48;;;;;;;0.30;0.30;;;14.80;84.70;;;;;;5020848;28;20106;-78
2023/10/29 02:18:13;;;;;;;0.00;0.00;;;14.80;84.30;;;;;;5040424;28;20017;-78
2023/10/29 02:20:39;;;;;;;0.00;0.00;;;14.80;83.60;;;;;;5037216;28;20496;-78
2023/10/29 02:23:05;;;;;;;0.00;0.00;;;14.80;83.60;;;;;;5040078;28;20507;-80
2023/10/29 02:25:30;;;;;;;0.00;0.00;;;14.80;83.60;;;;;;5037492;28;20029;-78
2023/10/29 02:27:56;;;;;;;0.27;0.27;;;14.90;82.90;;;;;;5038120;28;20032;-79
2023/10/29 02:30:22;;;;;;;0.00;0.00;;;14.90;84.40;;;;;;5042170;28;20033;-78
2023/10/29 02:32:47;;;;;;;0.20;0.20;;;14.90;83.00;;;;;;5041712;28;20021;-81
2023/10/29 02:35:14;;;;;;;0.00;0.00;;;14.90;83.20;;;;;;5037099;28;20096;-78
2023/10/29 02:37:39;;;;;;;0.00;0.00;;;14.90;83.70;;;;;;5039331;28;20031;-78
2023/10/29 02:40:06;;;;;;;0.00;0.00;;;14.80;83.90;;;;;;5039625;28;20495;-78
2023/10/29 02:42:31;;;;;;;0.00;0.00;;;14.80;84.30;;;;;;5044232;28;20087;-78
2023/10/29 02:44:58;;;;;;;0.00;0.00;;;14.80;84.60;;;;;;5048982;28;20124;-80
2023/10/29 02:47:24;;;;;;;0.20;0.20;;;14.80;84.70;;;;;;5031516;28;20438;-78
2023/10/29 02:49:50;;;;;;;0.00;0.00;;;14.70;86.70;;;;;;5045154;28;20037;-79
2023/10/29 02:52:15;;;;;;;0.00;0.00;;;14.50;89.70;;;;;;5043664;28;20508;-78
2023/10/29 02:54:41;;;;;;;0.00;0.00;;;14.50;90.50;;;;;;5048441;28;20573;-79
2023/10/29 02:57:07;;;;;;;0.40;0.40;;;14.40;90.90;;;;;;5048587;28;20075;-80
2023/10/29 02:59:32;;;;;;;0.00;0.00;;;14.40;91.30;;;;;;5046955;28;20140;-80
2023/10/29 03:01:58;;;;;;;0.00;0.00;;;14.30;91.70;;;;;;5048381;28;20025;-79
2023/10/29 03:04:24;;;;;;;0.13;0.13;;;14.30;92.50;;;;;;5042764;28;20625;-78
2023/10/29 03:06:49;;;;;;;0.00;0.00;;;14.20;92.70;;;;;;5045816;28;20029;-79
2023/10/29 03:09:15;;;;;;;0.00;0.00;;;14.20;93.10;;;;;;5044923;28;20087;-81
2023/10/29 03:11:41;;;;;;;0.10;0.10;;;14.20;93.60;;;;;;5051621;28;20029;-80
2023/10/29 03:14:07;;;;;;;0.10;0.10;;;14.20;93.50;;;;;;5046131;28;20091;-81
2023/10/29 03:16:32;;;;;;;0.00;0.00;;;14.20;93.70;;;;;;5043401;28;20106;-80
2023/10/29 03:18:58;;;;;;;0.00;0.00;;;14.20;93.60;;;;;;5043201;28;20064;-79
2023/10/29 03:21:24;;;;;;;0.00;0.00;;;14.20;93.40;;;;;;5042836;28;20075;-78
2023/10/29 03:23:49;;;;;;;0.10;0.10;;;14.20;93.70;;;;;;5045280;28;20032;-78
2023/10/29 03:26:15;;;;;;;0.00;0.00;;;14.20;93.70;;;;;;5042813;28;20029;-78
2023/10/29 03:28:42;;;;;;;0.00;0.00;;;14.20;93.90;;;;;;5022570;28;20271;-79
2023/10/29 03:31:11;;;;;;;;;;;14.20;93.60;;;;;;5040898;28;20021;-80
2023/10/29 03:33:36;;;;;;;0.00;0.00;;;14.20;93.30;;;;;;5019215;28;20006;-80
2023/10/29 03:36:06;;;;;;;0.10;0.10;;;14.20;93.70;;;;;;5026278;28;20856;-80
2023/10/29 03:38:32;;;;;;;0.00;0.00;;;14.20;93.80;;;;;;5036069;28;20037;-78
2023/10/29 03:40:58;;;;;;;0.00;0.00;;;14.20;93.40;;;;;;5045324;28;20028;-79
2023/10/29 03:43:23;;;;;;;0.00;0.00;;;14.20;93.30;;;;;;5039234;28;20028;-78
2023/10/29 03:45:49;;;;;;;0.00;0.00;;;14.20;93.50;;;;;;5038397;28;20025;-78
2023/10/29 03:48:15;;;;;;;0.00;0.00;;;14.10;94.00;;;;;;5033042;28;20025;-78
2023/10/29 03:50:41;;;;;;;0.00;0.00;;;14.10;92.90;;;;;;5051223;28;20021;-78
2023/10/29 03:53:08;;;;;;;0.00;0.00;;;14.20;92.50;;;;;;5039506;28;20036;-80
2023/10/29 03:55:37;;;;;;;0.00;0.00;;;14.20;92.50;;;;;;5050719;28;20025;-78
2023/10/29 03:58:03;;;;;;;1.65;0.55;;;14.00;92.70;;;;;;5043715;28;20033;-79
2023/10/29 04:00:29;;;;;;;0.10;0.10;;;14.00;92.70;;;;;;5043818;28;20591;-79
2023/10/29 04:02:55;;;;;;;0.00;0.00;;;14.00;92.70;;;;;;5042516;28;20017;-78
2023/10/29 04:05:21;;;;;;;0.00;0.00;;;14.20;92.20;;;;;;5047656;28;20021;-80
2023/10/29 04:07:47;;;;;;;0.00;0.00;;;14.20;91.60;;;;;;5043654;28;20099;-79
2023/10/29 04:10:12;;;;;;;0.10;0.10;;;14.00;91.90;;;;;;5046532;28;21186;-80
2023/10/29 04:12:39;;;;;;;0.00;0.00;;;14.00;92.00;;;;;;5045016;28;20025;-79
2023/10/29 04:15:05;;;;;;;0.00;0.00;;;14.10;92.20;;;;;;5049774;28;20033;-80
2023/10/29 04:17:31;;;;;;;0.10;0.10;;;14.20;92.10;;;;;;5042148;28;20040;-80
2023/10/29 04:19:58;;;;;;;3.17;1.65;;;14.00;93.00;;;;;;5043267;28;20069;-82
2023/10/29 04:22:23;;;;;;;0.10;0.10;;;14.00;93.70;;;;;;5030940;28;20250;-80
2023/10/29 04:24:49;;;;;;;0.00;0.00;;;13.90;95.10;;;;;;5046341;28;20480;-79
2023/10/29 04:27:15;;;;;;;0.10;0.10;;;14.00;95.40;;;;;;5039520;28;20048;-81
2023/10/29 04:29:41;;;;;;;0.00;0.00;;;14.00;95.60;;;;;;5041931;28;20230;-81
2023/10/29 04:32:06;;;;;;;0.00;0.00;;;14.00;96.10;;;;;;5038744;28;20033;-80
2023/10/29 04:34:32;;;;;;;0.00;0.00;;;14.00;96.70;;;;;;5045865;28;20037;-81
2023/10/29 04:36:58;;;;;;;0.00;0.00;;;14.00;96.80;;;;;;5049884;28;20033;-80
2023/10/29 04:39:24;;;;;;;0.00;0.00;;;14.00;96.20;;;;;;5028203;28;20500;-79
2023/10/29 04:41:50;;;;;;;0.00;0.00;;;14.10;95.70;;;;;;5042382;28;20029;-79
2023/10/29 04:44:16;;;;;;;0.10;0.10;;;14.10;96.30;;;;;;5044271;28;20755;-80
2023/10/29 04:46:42;;;;;;;0.00;0.00;;;14.20;95.60;;;;;;5047686;28;20033;-79
2023/10/29 04:49:07;;;;;;;0.07;0.07;;;14.20;95.50;;;;;;5044076;28;20033;-82
2023/10/29 04:51:33;;;;;;;0.10;0.10;;;14.20;95.30;;;;;;5027928;28;20527;-79
2023/10/29 04:54:02;;;;;;;0.00;0.00;;;14.20;95.40;;;;;;5041892;28;20111;-79
2023/10/29 04:56:28;;;;;;;0.00;0.00;;;14.20;95.60;;;;;;5043293;28;20025;-81
2023/10/29 04:58:53;;;;;;;0.07;0.07;;;14.20;95.80;;;;;;5041011;28;20059;-78
2023/10/29 05:01:19;;;;;;;0.00;0.00;;;14.10;96.20;;;;;;5043189;28;20037;-80
2023/10/29 05:03:45;;;;;;;0.00;0.00;;;14.10;96.40;;;;;;5042479;28;20029;-78
2023/10/29 05:06:20;;;;;;;0.00;0.00;;;13.90;97.80;;;;;;5046011;28;20033;-78
2023/10/29 05:08:45;;;;;;;0.00;0.00;;;13.60;98.60;;;;;;5026026;28;20028;-80
2023/10/29 05:11:11;;;;;;;0.00;0.00;;;13.60;99.10;;;;;;5047669;28;20102;-79
2023/10/29 05:13:37;;;;;;;0.03;0.03;;;13.20;99.90;;;;;;5050875;28;20583;-79
2023/10/29 05:16:04;;;;;;;0.00;0.00;;;13.00;99.90;;;;;;5028933;28;20020;-79
2023/10/29 05:18:30;;;;;;;0.00;0.00;;;12.90;99.90;;;;;;5045895;28;20118;-78
2023/10/29 05:20:55;;;;;;;0.00;0.00;;;12.80;99.90;;;;;;5038758;28;20025;-79
2023/10/29 05:23:21;;;;;;;0.00;0.00;;;12.60;99.90;;;;;;5040196;28;20033;-79
2023/10/29 05:25:47;;;;;;;0.07;0.07;;;12.60;99.90;;;;;;5033532;28;20044;-78
2023/10/29 05:28:12;;;;;;;0.00;0.00;;;12.90;99.90;;;;;;5037147;28;20025;-79
2023/10/29 05:30:39;;;;;;;0.00;0.00;;;13.10;99.90;;;;;;5037513;28;20041;-80
2023/10/29 05:33:05;;;;;;;0.00;0.00;;;13.20;99.90;;;;;;5042282;28;20052;-79
2023/10/29 05:35:30;;;;;;;0.00;0.00;;;13.30;99.90;;;;;;5038426;28;20029;-78
2023/10/29 05:37:56;;;;;;;0.00;0.00;;;13.30;99.90;;;;;;5042616;28;20036;-80
2023/10/29 05:40:22;;;;;;;0.00;0.00;;;13.30;99.90;;;;;;5038301;28;20542;-80
2023/10/29 05:42:47;;;;;;;0.00;0.00;;;13.40;99.90;;;;;;5043240;28;20755;-82
2023/10/29 05:45:13;;;;;;;0.00;0.00;;;13.50;99.90;;;;;;5036370;28;20037;-82
2023/10/29 05:47:39;;;;;;;0.00;0.00;;;13.60;99.90;;;;;;5035948;28;20754;-80
2023/10/29 05:50:06;;;;;;;0.00;0.00;;;13.60;99.90;;;;;;5036727;28;20396;-81
2023/10/29 05:52:31;;;;;;;;;;;13.60;99.90;;;;;;5037087;28;20025;-79
2023/10/29 05:54:57;;;;;;;0.00;0.00;;;13.70;99.90;;;;;;5038153;28;19920;-78
2023/10/29 05:57:22;;;;;;;0.00;0.00;;;13.70;99.90;;;;;;5042741;28;20475;-79
2023/10/29 05:59:48;;;;;;;0.03;0.03;;;13.80;99.90;;;;;;5041773;28;20056;-79
2023/10/29 06:02:14;;;;;;;0.00;0.00;;;13.90;99.90;;;;;;5047819;28;20021;-78
2023/10/29 06:04:40;;;;;;;0.00;0.00;;;13.90;99.90;;;;;;5047265;28;20086;-77
2023/10/29 06:07:07;;;;;;;0.10;0.10;;;13.90;99.90;;;;;;5047308;28;20028;-79
2023/10/29 06:09:33;;;;;;;0.00;0.00;;;14.00;99.90;;;;;;5044968;28;20040;-79
2023/10/29 06:11:59;;;;;;;0.00;0.00;;;13.90;99.90;;;;;;5027345;28;20028;-79
2023/10/29 06:14:24;;;;;;;0.00;0.00;;;13.90;99.90;;;;;;5045379;28;20028;-78
2023/10/29 06:16:56;;;;;;;0.00;0.00;;;13.90;99.90;;;;;;5042198;28;20037;-83
2023/10/29 06:19:23;;;;;;;0.00;0.00;;;13.70;99.90;;;;;;5042041;28;20113;-80
2023/10/29 06:21:49;;;;;;;0.00;0.00;;;13.70;99.90;;;;;;5031101;28;20412;-83
2023/10/29 06:24:14;;;;;;;0.00;0.00;;;13.70;99.90;;;;;;5041040;28;20052;-79
2023/10/29 06:26:41;;;;;;;0.00;0.00;;;13.80;99.90;;;;;;5044466;28;20020;-78
2023/10/29 06:29:08;;;;;;;0.00;0.00;;;13.90;99.90;;;;;;5050300;28;20269;-79
2023/10/29 06:31:34;;;;;;;0.00;0.00;;;14.00;99.90;;;;;;5045005;28;20075;-80
2023/10/29 06:34:01;;;;;;;0.00;0.00;;;14.00;99.90;;;;;;5048330;28;20479;-80
2023/10/29 06:36:27;;;;;;;;;;;14.10;99.90;;;;;;5046392;28;20860;-85
2023/10/29 06:38:53;;;;;;;0.00;0.00;;;14.10;99.90;;;;;;5028952;28;20288;-81
2023/10/29 06:41:19;;;;;;;0.00;0.00;;;14.20;99.90;;;;;;5035181;28;20055;-81
2023/10/29 06:43:44;;;;;;;0.00;0.00;;;14.30;99.90;;;;;;5042814;28;20546;-80
2023/10/29 06:46:10;;;;;;;0.00;0.00;;;14.20;99.90;;;;;;5044335;28;20044;-80
2023/10/29 06:48:41;;;;;;;0.00;0.00;;;14.20;99.90;;;;;;5024965;28;20083;-81
2023/10/29 06:51:09;;;;;;;0.00;0.00;;;14.20;99.90;;;;;;5043097;28;20025;-80
2023/10/29 06:53:35;;;;;;;0.10;0.10;;;14.30;99.70;;;;;;5024421;28;20025;-79
2023/10/29 06:56:02;;;;;;;0.00;0.00;;;14.30;99.60;;;;;;5041761;28;20025;-81
2023/10/29 07:00:37;;;;;;;0.10;0.10;;;14.30;99.40;;;;;;5093780;27;1276658;-79
2023/10/29 07:03:03;;;;;;;0.00;0.00;;;14.30;99.40;;;;;;5105256;28;20411;-79
2023/10/29 07:05:28;;;;;;;0.07;0.07;;;14.40;99.20;;;;;;5105036;28;20032;-80
2023/10/29 07:07:54;;;;;;;0.00;0.00;;;14.30;99.30;;;;;;5114556;27;20054;-80
2023/10/29 07:10:20;;;;;;;0.10;0.10;;;14.40;99.20;;;;;;5117493;28;20065;-81
2023/10/29 07:12:45;;;;;;;0.00;0.00;;;14.40;98.50;;;;;;5104333;28;20066;-80
2023/10/29 07:15:11;;;;;;;0.00;0.00;;;14.40;99.00;;;;;;5107240;28;20027;-81
2023/10/29 07:17:37;;;;;;;0.00;0.00;;;14.40;98.70;;;;;;5106694;28;20038;-82
2023/10/29 07:20:06;;;;;;;0.00;0.00;;;14.40;98.30;;;;;;5108094;28;20127;-81
2023/10/29 07:22:32;;;;;;;0.00;0.00;;;14.50;98.00;;;;;;5111980;28;20399;-80
2023/10/29 07:24:57;;;;;;;0.00;0.00;;;14.60;98.10;;;;;;5109009;27;20032;-83
2023/10/29 07:27:23;;;;;;;0.00;0.00;;;14.60;97.80;;;;;;5112965;28;20025;-84
2023/10/29 07:29:49;;;;;;;0.00;0.00;;;14.70;97.80;;;;;;5120676;28;20027;-83
2023/10/29 07:32:14;;;;;;;0.00;0.00;;;14.70;97.50;;;;;;5115979;28;20061;-81
2023/10/29 07:34:40;;;;;;;0.03;0.03;;;14.80;97.00;;;;;;5116933;28;20023;-83
2023/10/29 07:37:06;;;;;;;3.97;3.10;;;14.70;96.90;;;;;;5116012;27;20481;-85
2023/10/29 07:39:31;;;;;;;0.00;0.00;;;14.70;97.10;;;;;;5113598;28;20035;-83
2023/10/29 07:41:57;;;;;;;0.00;0.00;;;14.70;97.30;;;;;;5113976;27;20115;-86
2023/10/29 07:44:26;;;;;;;0.00;0.00;;;14.70;97.20;;;;;;5109091;28;20019;-84
2023/10/29 07:46:51;;;;;;;0.00;0.00;;;14.70;97.80;;;;;;5113274;28;20040;-83
2023/10/29 07:49:17;;;;;;;0.00;0.00;;;14.80;97.70;;;;;;5114721;28;20114;-83
2023/10/29 07:51:43;;;;;;;0.00;0.00;;;15.10;97.30;;;;;;5110919;28;20054;-84
2023/10/29 07:54:09;;;;;;;0.00;0.00;;;15.20;96.80;;;;;;5112926;27;20384;-80
2023/10/29 07:56:34;;;;;;;0.00;0.00;;;15.10;97.00;;;;;;5111320;28;20498;-84
2023/10/29 07:59:00;;;;;;;0.00;0.00;;;15.00;97.30;;;;;;5119976;27;20055;-82
2023/10/29 08:01:26;;;;;;;0.00;0.00;;;15.10;97.30;;;;;;5108868;28;20067;-81
2023/10/29 08:03:52;;;;;;;0.13;0.13;;;15.30;97.50;;;;;;5115045;28;20027;-84
2023/10/29 08:06:18;;;;;;;0.00;0.00;;;15.30;97.40;;;;;;5117566;28;20110;-82
2023/10/29 08:08:44;;;;;;;0.10;0.10;;;15.20;96.80;;;;;;5105130;28;20038;-81
2023/10/29 08:11:20;;;;;;;0.00;0.00;;;15.20;96.80;;;;;;5104988;28;20020;-81
2023/10/29 08:13:46;;;;;;;0.00;0.00;;;15.10;96.80;;;;;;5085920;28;20556;-82
2023/10/29 08:16:13;;;;;;;0.00;0.00;;;15.10;96.70;;;;;;5094473;28;20115;-81
2023/10/29 08:18:39;;;;;;;1.38;1.30;;;15.20;96.80;;;;;;5100120;28;20586;-83
2023/10/29 08:21:05;;;;;;;0.90;0.83;;;15.20;97.00;;;;;;5102330;28;20020;-81
2023/10/29 08:23:31;;;;;;;0.00;0.00;;;15.20;96.90;;;;;;5098012;28;20028;-82
2023/10/29 08:25:56;;;;;;;7.40;1.13;;;15.20;97.20;;;;;;5092919;28;20074;-82
2023/10/29 08:28:24;;;;;;;9.27;3.10;;;15.20;97.70;;;;;;5093542;28;20097;-82
2023/10/29 08:30:49;;;;;;;0.00;0.00;;;15.30;97.40;;;;;;5105065;28;20139;-82
2023/10/29 08:33:15;;;;;;;0.00;0.00;;;15.40;97.90;;;;;;5099167;28;20490;-83
2023/10/29 08:35:44;;;;;;;0.20;0.20;;;15.50;97.50;;;;;;5095498;28;20035;-82
2023/10/29 08:38:10;;;;;;;0.00;0.00;;;15.50;97.00;;;;;;5100394;28;20023;-82
2023/10/29 08:40:35;;;;;;;0.30;0.30;;;15.30;97.20;;;;;;5092209;28;20510;-85
2023/10/29 08:43:05;;;;;;;0.00;0.00;;;15.20;98.20;;;;;;5089135;28;20641;-81
2023/10/29 08:45:30;;;;;;;0.00;0.00;;;15.20;98.30;;;;;;5096984;28;20059;-82
2023/10/29 08:47:56;;;;;;;0.00;0.00;;;15.20;98.10;;;;;;5103057;28;20627;-84
2023/10/29 08:50:22;;;;;;;0.00;0.00;;;15.30;98.10;;;;;;5101687;28;20028;-82
2023/10/29 08:52:48;;;;;;;0.00;0.00;;;15.40;97.90;;;;;;5083233;28;20115;-87
2023/10/29 08:55:14;;;;;;;0.00;0.00;;;15.70;97.90;;;;;;5103632;28;20023;-88
2023/10/29 08:57:39;;;;;;;0.00;0.00;;;15.70;97.10;;;;;;5104963;28;20058;-88
2023/10/29 09:00:06;;;;;;;0.00;0.00;;;15.70;96.60;;;;;;5092457;28;20130;-89
2023/10/29 09:02:31;;;;;;;0.00;0.00;;;15.70;96.90;;;;;;5103387;28;20115;-88
2023/10/29 09:04:57;;;;;;;0.00;0.00;;;15.60;96.30;;;;;;5102173;28;21002;-88
2023/10/29 09:07:24;;;;;;;0.00;0.00;;;15.60;96.10;;;;;;5094467;28;20016;-89
2023/10/29 09:09:50;;;;;;;;;;;15.70;95.90;;;;;;5103976;28;20024;-89
2023/10/29 09:12:15;;;;;;;0.00;0.00;;;15.60;96.10;;;;;;5088820;28;19908;-88
2023/10/29 09:14:41;;;;;;;0.00;0.00;;;15.60;96.00;;;;;;5107436;28;20028;-89
2023/10/29 09:17:07;;;;;;;0.00;0.00;;;15.70;95.90;;;;;;5096718;28;20024;-88
2023/10/29 09:19:33;;;;;;;0.00;0.00;;;15.70;96.40;;;;;;5099965;28;20799;-89
2023/10/29 09:22:00;;;;;;;0.00;0.00;;;15.70;96.00;;;;;;5106305;28;20020;-89
2023/10/29 09:24:25;;;;;;;0.03;0.03;;;15.60;96.70;;;;;;5088153;28;20034;-88
2023/10/29 09:26:51;;;;;;;0.00;0.00;;;15.50;97.00;;;;;;5100883;28;20399;-90
2023/10/29 09:29:16;;;;;;;0.00;0.00;;;15.60;96.90;;;;;;5087441;28;20035;-88
2023/10/29 09:31:42;;;;;;;0.00;0.00;;;15.60;95.90;;;;;;5100786;28;20024;-88
2023/10/29 09:34:08;;;;;;;0.00;0.00;;;15.50;96.20;;;;;;5105596;28;20020;-89
2023/10/29 09:36:34;;;;;;;0.00;0.00;;;15.60;96.10;;;;;;5093727;28;20026;-90
2023/10/29 09:38:59;;;;;;;0.00;0.00;;;15.80;95.20;;;;;;5083037;28;20367;-89
2023/10/29 09:41:25;;;;;;;0.00;0.00;;;16.00;94.80;;;;;;5102181;28;20034;-89
2023/10/29 09:43:53;;;;;;;0.00;0.00;;;16.00;95.00;;;;;;5108175;28;20498;-89
2023/10/29 09:46:21;;;;;;;0.00;0.00;;;15.90;94.90;;;;;;5107261;28;20024;-90
2023/10/29 09:48:48;;;;;;;0.00;0.00;;;16.10;94.00;;;;;;5108215;28;20062;-90
2023/10/29 09:51:15;;;;;;;0.00;0.00;;;16.20;93.50;;;;;;5094557;28;20020;-89
2023/10/29 09:53:41;;;;;;;0.00;0.00;;;16.10;92.90;;;;;;5092488;28;20812;-89
2023/10/29 09:56:10;;;;;;;0.00;0.00;;;16.00;93.20;;;;;;5089490;28;20154;-89
2023/10/29 09:58:36;;;;;;;0.00;0.00;;;16.00;92.80;;;;;;5103762;28;20090;-89
2023/10/29 10:01:04;;;;;;;0.00;0.00;;;16.00;92.70;;;;;;5095675;28;20065;-89
2023/10/29 10:03:30;;;;;;;0.00;0.00;;;16.10;92.90;;;;;;5091720;28;20047;-89
2023/10/29 10:05:59;;;;;;;0.00;0.00;;;16.30;93.10;;;;;;5093379;28;20552;-88
2023/10/29 10:08:26;;;;;;;0.00;0.00;;;16.30;92.60;;;;;;5093934;28;20035;-89
2023/10/29 10:10:53;;;;;;;0.00;0.00;;;16.40;92.20;;;;;;5070155;28;20657;-89
2023/10/29 10:13:34;;;;;;;0.00;0.00;;;16.60;92.20;;;;;;5075670;28;20059;-90
2023/10/29 10:16:06;;;;;;;0.00;0.00;;;16.60;92.30;;;;;;5092054;28;20028;-89
2023/10/29 10:18:50;;;;;;;0.00;0.00;;;16.80;91.80;;;;;;5086399;28;20035;-89
2023/10/29 10:21:16;;;;;;;0.00;0.00;;;16.90;91.80;;;;;;5092624;28;20051;-89
2023/10/29 10:23:50;;;;;;;0.00;0.00;;;17.00;91.50;;;;;;5092050;28;21343;-89
2023/10/29 10:26:26;;;;;;;0.00;0.00;;;17.00;91.20;;;;;;5094210;28;20032;-89
2023/10/29 10:28:57;;;;;;;0.32;0.32;;;17.10;91.50;;;;;;5086282;28;20103;-89
2023/10/29 10:31:25;;;;;;;0.00;0.00;;;17.00;91.50;;;;;;5093248;28;20035;-89
2023/10/29 10:33:51;;;;;;;0.00;0.00;;;16.90;91.70;;;;;;5100449;28;20114;-88
2023/10/29 10:36:32;;;;;;;0.00;0.00;;;16.80;91.00;;;;;;5101324;28;20111;-90
2023/10/29 10:38:58;;;;;;;0.00;0.00;;;16.70;91.90;;;;;;5087680;28;20040;-87
2023/10/29 10:41:23;;;;;;;0.00;0.00;;;16.70;91.90;;;;;;5095258;28;20074;-89
2023/10/29 10:44:16;;;;;;;0.00;0.00;;;16.80;91.90;;;;;;5079434;28;20048;-89
2023/10/29 10:46:47;;;;;;;0.00;0.00;;;16.80;92.40;;;;;;5096706;28;20414;-89
2023/10/29 10:49:14;;;;;;;0.00;0.00;;;16.70;92.30;;;;;;5095344;28;20024;-88
2023/10/29 10:51:40;;;;;;;0.00;0.00;;;16.70;92.20;;;;;;5095123;28;20024;-89
2023/10/29 10:54:07;;;;;;;0.05;0.05;;;16.60;92.10;;;;;;5100111;28;20027;-88
2023/10/29 10:56:37;;;;;;;0.00;0.00;;;16.60;92.40;;;;;;5096021;28;20028;-88
2023/10/29 10:59:07;;;;;;;0.00;0.00;;;16.60;92.60;;;;;;5088206;28;20109;-88
2023/10/29 11:01:35;;;;;;;0.00;0.00;;;16.60;92.50;;;;;;5070087;28;20074;-88
2023/10/29 11:04:03;;;;;;;0.00;0.00;;;16.70;92.40;;;;;;5099811;28;20028;-89
2023/10/29 11:06:32;;;;;;;0.00;0.00;;;16.80;92.40;;;;;;5100574;28;20031;-89
2023/10/29 11:09:02;;;;;;;0.00;0.00;;;16.80;92.30;;;;;;5096201;28;20122;-89
2023/10/29 11:11:35;;;;;;;0.00;0.00;;;16.90;92.00;;;;;;5093258;28;20027;-89
2023/10/29 11:14:20;;;;;;;0.00;0.00;;;16.90;91.90;;;;;;5096881;28;20081;-89
2023/10/29 11:16:52;;;;;;;0.00;0.00;;;16.90;91.40;;;;;;5089706;28;20119;-89
2023/10/29 11:19:44;;;;;;;0.00;0.00;;;16.80;91.70;;;;;;5099826;28;20039;-88
2023/10/29 11:22:21;;;;;;;0.00;0.00;;;16.70;91.80;;;;;;5086637;28;20024;-89
2023/10/29 11:25:14;;;;;;;0.00;0.00;;;16.80;91.70;;;;;;5098198;28;20114;-88
2023/10/29 11:27:45;;;;;;;0.00;0.00;;;16.80;91.80;;;;;;5077672;28;20105;-84
2023/10/29 11:30:15;;;;;;;0.00;0.00;;;16.90;91.60;;;;;;5087960;28;20039;-85
2023/10/29 11:32:41;;;;;;;0.00;0.00;;;17.00;92.20;;;;;;5098584;28;20570;-85
2023/10/29 11:35:16;;;;;;;0.00;0.00;;;17.10;93.00;;;;;;5096420;28;20031;-86
2023/10/29 11:37:43;;;;;;;0.00;0.00;;;17.20;93.40;;;;;;5089528;28;20054;-85
2023/10/29 11:40:24;;;;;;;;;;;17.30;93.60;;;;;;5089341;28;20039;-85
2023/10/29 11:42:53;;;;;;;0.00;0.00;;;17.30;93.20;;;;;;5096330;28;20006;-85
2023/10/29 11:45:28;;;;;;;0.00;0.00;;;17.30;93.10;;;;;;5101877;28;20024;-85
2023/10/29 11:48:10;;;;;;;0.00;0.00;;;17.30;92.80;;;;;;5102838;28;20116;-85
2023/10/29 11:50:36;;;;;;;2.30;1.23;;;17.50;92.20;;;;;;5100216;28;20059;-85
2023/10/29 11:53:02;;;;;;;1.25;0.88;;;17.40;92.40;;;;;;5103733;28;20069;-84
2023/10/29 11:55:41;;;;;;;0.15;0.15;;;17.40;92.60;;;;;;5103029;28;20031;-85
2023/10/29 11:58:07;;;;;;;0.00;0.00;;;17.50;92.30;;;;;;5099863;28;20024;-85
2023/10/29 12:00:40;;;;;;;0.03;0.03;;;17.60;92.00;;;;;;5096956;28;20526;-86
2023/10/29 12:03:08;;;;;;;0.00;0.00;;;17.70;92.30;;;;;;5103838;28;20087;-86
2023/10/29 12:05:34;;;;;;;0.00;0.00;;;17.70;92.70;;;;;;5093421;28;20043;-85
2023/10/29 12:08:00;;;;;;;0.00;0.00;;;17.70;92.60;;;;;;5098658;28;20035;-85
2023/10/29 12:10:26;;;;;;;0.00;0.00;;;18.00;92.30;;;;;;5103582;28;20040;-85
2023/10/29 12:12:53;;;;;;;0.90;0.80;;;18.20;91.70;;;;;;5102868;28;20032;-85
2023/10/29 12:15:19;;;;;;;1.75;1.08;;;18.00;91.90;;;;;;5105231;28;20027;-86
2023/10/29 12:17:46;;;;;;;0.00;0.00;;;17.90;92.30;;;;;;5102489;28;20052;-86
2023/10/29 12:20:22;;;;;;;;;;;18.00;92.50;;;;;;5078717;28;20497;-86
2023/10/29 12:22:57;;;;;;;0.00;0.00;;;18.20;92.50;;;;;;5095759;28;19916;-86
2023/10/29 12:25:26;;;;;;;0.00;0.00;;;18.20;91.80;;;;;;5086626;28;20028;-86
2023/10/29 12:27:52;;;;;;;0.00;0.00;;;18.20;91.90;;;;;;5089917;28;20032;-87
2023/10/29 12:30:38;;;;;;;0.00;0.00;;;18.30;91.90;;;;;;5098562;28;20846;-87
2023/10/29 12:33:20;;;;;;;0.00;0.00;;;18.50;92.00;;;;;;5100108;28;20024;-86
2023/10/29 12:35:50;;;;;;;0.00;0.00;;;18.60;91.80;;;;;;5098596;28;20705;-86
2023/10/29 12:38:18;;;;;;;0.00;0.00;;;18.70;91.70;;;;;;5093683;28;20032;-89
2023/10/29 12:41:16;;;;;;;0.00;0.00;;;18.60;91.80;;;;;;5095050;28;20076;-88
2023/10/29 12:43:47;;;;;;;0.00;0.00;;;18.40;91.60;;;;;;5101643;28;20089;-88
2023/10/29 12:46:19;;;;;;;0.00;0.00;;;18.40;92.10;;;;;;5098915;28;20027;-82
2023/10/29 12:48:59;;;;;;;0.00;0.00;;;18.30;92.40;;;;;;5090511;28;20043;-82
2023/10/29 12:51:26;;;;;;;0.00;0.00;;;18.10;92.00;;;;;;5098821;28;20099;-83